Terminal Aerodrome Forecast
Issued by NWS

Home | Current Version | Previous Version | Text Only | Print | Product List | Glossary On
Versions: 1 2 3 4 5 6 7 8 9 10 11 12 13 14 15 16 17
000
FTUS43 KGRR 050500
TAFBTL
TAF
KBTL 050530Z 0506/0606 05006KT P6SM BKN150
     FM051000 06006KT 6SM -RA OVC090
     FM051100 08007KT 4SM -SHRA BR VCTS OVC035CB
     FM051500 08008KT 3SM -SHRA BR VCTS OVC012CB
     FM051700 08009KT 2SM -RA BR OVC005=

USA.gov is the U.S. government's official web portal to all federal, state and local government web resources and services.